7FD6 weather

Loxahatchee Airport
Lake Worth, Florida, United States

Public forecast

Using degrees Fahrenheit for public forecast. Weather courtesy of forecast.io.

METAR (pilot weather report)

Closest report is Palm Beach International Airport, 11.8 nm (21.9 km) ENE. Retrieved 2019/06/19 16:38 UTC (0 seconds ago):

KPBI 191638Z VRB06KT 2SM +TSRA BR BKN026CB BKN033 BKN043 26/23 A3007 RMK AO2 RAB25 OCNL LTGICCG OHD-ALQDS TS OHD-ALQDS MOV E CB DSNT ALQDS P0003 T02610228

TAF (pilot weather forecast)

Closest forecast is Palm Beach International Airport, 11.8 nm (21.9 km) ENE. Retrieved 2019/06/19 12:42 UTC (4 hours ago):

TAF KPBI 191139Z 1912/2012 VRB03KT P6SM FEW020 SCT120 BKN250 FM191400 20008KT P6SM VCSH SCT030 SCT060 BKN090 FM191700 17012KT P6SM VCTS SCT030CB BKN080 BKN120 FM200100 21005KT P6SM SCT020 BKN150